Terminal Aerodrome Forecast
Issued by NWS

Home | Current Version | Previous Version | Text Only | Print | Product List | Glossary On
Versions: 1 2 3 4 5 6 7 8 9 10 11 12 13 14 15 16 17 18 19 20
831
FTUS43 KDLH 280105 AAA
TAFHIB
TAF AMD
KHIB 280105Z 2801/2824 33011KT P6SM VCSH OVC017
     FM281400 02008KT P6SM BKN015
     FM281800 02006KT P6SM SCT015=

USA.gov is the U.S. government's official web portal to all federal, state and local government web resources and services.